createdAt,value
2018-05-10T00:00:13.519Z,12.7
2018-05-10T00:01:03.883Z,12.7
2018-05-10T00:01:53.937Z,12.7
2018-05-10T00:02:44.004Z,12.7
2018-05-10T00:03:34.054Z,12.7
2018-05-10T00:04:24.213Z,12.7
2018-05-10T00:05:14.189Z,12.7
2018-05-10T00:06:03.967Z,12.7
2018-05-10T00:06:54.331Z,12.7
2018-05-10T00:07:44.182Z,12.6
2018-05-10T00:08:34.169Z,12.6
2018-05-10T00:09:39.395Z,12.6
2018-05-10T00:10:14.688Z,12.6
2018-05-10T00:11:04.634Z,12.6
2018-05-10T00:11:54.704Z,12.6
2018-05-10T00:12:44.196Z,12.6
2018-05-10T00:13:34.555Z,12.6
2018-05-10T00:14:24.602Z,12.6
2018-05-10T00:15:14.954Z,12.6
2018-05-10T00:16:04.746Z,12.6
2018-05-10T00:16:55.077Z,12.6
2018-05-10T00:17:45.147Z,12.6
2018-05-10T00:18:35.225Z,12.6
2018-05-10T00:19:24.995Z,12.6
2018-05-10T00:20:15.352Z,12.6
2018-05-10T00:21:05.414Z,12.6
2018-05-10T00:21:55.478Z,12.6
2018-05-10T00:22:45.526Z,12.6
2018-05-10T00:23:35.594Z,12.5
2018-05-10T00:24:26.178Z,12.6
2018-05-10T00:25:15.719Z,12.5
2018-05-10T00:26:05.798Z,12.5
2018-05-10T00:26:55.854Z,12.5
2018-05-10T00:27:45.627Z,12.5
2018-05-10T00:28:35.980Z,12.5
2018-05-10T00:29:25.765Z,12.5
2018-05-10T00:30:16.020Z,12.5
2018-05-10T00:31:06.099Z,12.4
2018-05-10T00:31:56.236Z,12.4
2018-05-10T00:32:46.015Z,12.4
2018-05-10T00:33:36.070Z,12.4
2018-05-10T00:34:26.414Z,12.4
2018-05-10T00:35:16.494Z,12.4
2018-05-10T00:36:06.560Z,12.4
2018-05-10T00:36:56.344Z,12.4
2018-05-10T00:37:46.671Z,12.4
2018-05-10T00:38:36.481Z,12.3
2018-05-10T00:39:26.848Z,12.3
2018-05-10T00:40:16.887Z,12.3
2018-05-10T00:41:06.964Z,12.3
2018-05-10T00:41:57.025Z,12.3
2018-05-10T00:43:50.423Z,12.3
2018-05-10T00:44:00.840Z,12.3
2018-05-10T00:44:51.688Z,12.2
2018-05-10T00:45:41.524Z,12.2
2018-05-10T00:46:31.601Z,12.2
2018-05-10T00:47:21.388Z,12.1
2018-05-10T00:48:11.717Z,12.1
2018-05-10T00:49:01.789Z,12.1
2018-05-10T00:49:51.278Z,12.1
2018-05-10T00:50:41.916Z,12.1
2018-05-10T00:51:31.969Z,12.1
2018-05-10T00:52:22.031Z,12.1
2018-05-10T00:53:12.319Z,12
2018-05-10T00:54:01.897Z,12
2018-05-10T00:54:51.955Z,12
2018-05-10T00:55:42.293Z,11.9
2018-05-10T00:56:32.386Z,11.9
2018-05-10T00:57:22.148Z,11.9
2018-05-10T00:58:12.228Z,11.9
2018-05-10T00:59:02.538Z,11.9
2018-05-10T00:59:52.349Z,11.9
2018-05-10T01:00:42.390Z,11.9
2018-05-10T01:01:33.001Z,11.9
2018-05-10T01:02:22.526Z,11.9
2018-05-10T01:03:12.108Z,11.9
2018-05-10T01:04:02.952Z,11.9
2018-05-10T01:04:52.655Z,11.9
2018-05-10T01:05:42.789Z,11.9
2018-05-10T01:06:32.567Z,11.8
2018-05-10T01:07:22.922Z,11.8
2018-05-10T01:08:13.276Z,11.8
2018-05-10T01:09:03.319Z,11.8
2018-05-10T01:09:53.399Z,11.7
2018-05-10T01:10:43.176Z,11.7
2018-05-10T01:11:33.034Z,11.7
2018-05-10T01:12:23.312Z,11.7
2018-05-10T01:13:13.249Z,11.6
2018-05-10T01:14:03.136Z,11.7
2018-05-10T01:14:53.573Z,11.6
2018-05-10T01:15:43.352Z,11.6
2018-05-10T01:16:33.623Z,11.6
2018-05-10T01:17:23.689Z,11.6
2018-05-10T01:18:13.748Z,11.6
2018-05-10T01:19:03.804Z,11.6
2018-05-10T01:19:53.956Z,11.6
2018-05-10T01:20:43.909Z,11.6
2018-05-10T01:21:34.063Z,11.6
2018-05-10T01:22:24.060Z,11.5
2018-05-10T01:23:13.853Z,11.5
2018-05-10T01:24:04.445Z,11.5
2018-05-10T01:24:54.533Z,11.4
2018-05-10T01:25:44.608Z,11.4
2018-05-10T01:26:34.395Z,11.4
2018-05-10T01:27:24.720Z,11.5
2018-05-10T01:28:14.489Z,11.5
2018-05-10T01:29:04.846Z,11.5
2018-05-10T01:29:54.614Z,11.5
2018-05-10T01:30:45.009Z,11.4
2018-05-10T01:31:35.017Z,11.4
2018-05-10T01:32:24.834Z,11.4
2018-05-10T20:10:28.927Z,14.3
2018-05-10T20:11:19.559Z,14.4
2018-05-10T20:12:09.621Z,14.4
2018-05-10T20:12:59.669Z,14.4
2018-05-10T20:13:50.122Z,14.4
2018-05-10T20:14:39.801Z,14.4
2018-05-10T20:15:29.871Z,14.4
2018-05-10T20:16:19.925Z,14.4
2018-05-10T20:17:09.716Z,14.4
2018-05-10T20:18:00.079Z,14.4
2018-05-10T20:18:49.559Z,14.4
2018-05-10T20:19:40.191Z,14.4
2018-05-10T20:20:29.473Z,14.4
2018-05-10T20:21:20.328Z,14.4
2018-05-10T20:22:10.371Z,14.4
2018-05-10T20:23:00.162Z,14.4
2018-05-10T20:23:50.490Z,14.3
2018-05-10T20:24:40.073Z,14.3
2018-05-10T20:25:30.068Z,14.3
2018-05-10T20:26:20.122Z,14.3
2018-05-10T20:27:10.276Z,14.3
2018-05-10T20:28:00.350Z,14.3
2018-05-10T20:28:50.311Z,14.3
2018-05-10T20:29:40.208Z,14.2
2018-05-10T20:30:30.529Z,14.2
2018-05-10T20:31:20.800Z,14.2
2018-05-10T20:32:10.984Z,14.1
2018-05-10T20:33:01.193Z,14.1
2018-05-10T20:33:50.694Z,14.1
2018-05-10T20:34:41.127Z,14.1
2018-05-10T20:35:31.377Z,14
2018-05-10T20:36:21.457Z,14
2018-05-10T20:37:11.522Z,14
2018-05-10T20:38:01.013Z,13.9
2018-05-10T20:38:51.660Z,13.9
2018-05-10T20:39:41.755Z,13.9
2018-05-10T20:40:31.220Z,13.9
2018-05-10T20:41:21.864Z,13.9
2018-05-10T20:42:12.019Z,13.9
2018-05-10T20:43:02.110Z,13.9
2018-05-10T20:43:51.747Z,13.9
2018-05-10T20:44:42.005Z,13.9
2018-05-10T20:45:31.867Z,13.9
2018-05-10T20:46:21.919Z,13.9
2018-05-10T20:47:11.988Z,13.9
2018-05-10T20:48:02.063Z,13.9
2018-05-10T20:48:52.434Z,13.9
2018-05-10T20:49:42.484Z,13.9
2018-05-10T20:50:32.707Z,13.9
2018-05-10T20:51:22.038Z,13.9
2018-05-10T20:52:12.654Z,13.9
2018-05-10T20:53:02.699Z,13.9
2018-05-10T20:53:52.499Z,13.9
2018-05-10T20:54:42.839Z,13.9
2018-05-10T20:55:32.934Z,13.9
2018-05-10T20:56:22.961Z,13.9
2018-05-10T20:57:12.478Z,13.9
2018-05-10T20:58:02.539Z,13.9
2018-05-10T20:58:52.901Z,13.8
2018-05-10T20:59:42.961Z,13.8
2018-05-10T21:00:33.286Z,13.8
2018-05-10T21:01:23.081Z,13.8
2018-05-10T21:02:12.805Z,13.8
2018-05-10T21:03:03.205Z,13.7
2018-05-10T21:03:52.855Z,13.7
2018-05-10T21:04:43.318Z,13.7
2018-05-10T21:05:33.473Z,13.8
2018-05-10T21:06:23.748Z,13.8
2018-05-10T21:07:13.508Z,13.8
2018-05-10T21:08:03.875Z,13.8
2018-05-10T21:08:53.944Z,13.8
2018-05-10T21:09:43.685Z,13.8
2018-05-10T21:10:33.760Z,13.7
2018-05-10T21:11:23.829Z,13.7
2018-05-10T21:12:14.168Z,13.7
2018-05-10T21:13:04.260Z,13.6
2018-05-10T21:13:54.297Z,13.6
2018-05-10T21:14:43.891Z,13.6
2018-05-10T21:15:34.440Z,13.6
2018-05-10T21:16:24.223Z,13.6
2018-05-10T21:17:14.559Z,13.6
2018-05-10T21:18:04.620Z,13.6
2018-05-10T21:18:54.698Z,13.6
2018-05-10T21:19:44.476Z,13.6
2018-05-10T21:20:34.816Z,13.6
2018-05-10T21:21:24.687Z,13.6
2018-05-10T21:22:14.647Z,13.6
2018-05-10T21:23:05.090Z,13.6
2018-05-10T21:23:54.779Z,13.6
2018-05-10T21:24:45.104Z,13.6
2018-05-10T21:25:34.910Z,13.6
2018-05-10T21:26:25.264Z,13.6
2018-05-10T21:27:15.317Z,13.5
2018-05-10T21:28:05.367Z,13.5
2018-05-10T21:28:55.166Z,13.5
2018-05-10T21:29:45.512Z,13.5
2018-05-10T21:30:34.994Z,13.5
2018-05-10T21:31:25.349Z,13.5
2018-05-10T21:32:15.688Z,13.5
2018-05-10T21:33:05.771Z,13.5
2018-05-10T21:33:55.929Z,13.4
2018-05-10T21:34:45.884Z,13.4
2018-05-10T21:35:35.944Z,13.4
2018-05-10T21:36:26.019Z,13.4
2018-05-10T21:37:16.076Z,13.4
2018-05-10T21:38:06.129Z,13.4
2018-05-10T21:38:56.188Z,13.4
2018-05-10T21:39:46.243Z,13.4
2018-05-10T21:40:36.323Z,13.5
2018-05-10T21:41:26.108Z,13.5
2018-05-10T21:42:16.466Z,13.5
2018-05-10T21:43:06.237Z,13.4
2018-05-10T21:43:56.560Z,13.4
2018-05-10T21:44:46.902Z,13.5
2018-05-10T21:45:36.708Z,13.5
2018-05-10T21:46:26.765Z,13.5
2018-05-10T21:47:16.839Z,13.5
2018-05-10T21:48:06.888Z,13.5
2018-05-10T21:48:56.675Z,13.5
2018-05-10T21:49:47.042Z,13.5
2018-05-10T21:50:36.790Z,13.5
2018-05-10T21:51:26.866Z,13.5
2018-05-10T21:52:17.219Z,13.5
2018-05-10T21:53:07.284Z,13.5
2018-05-10T21:53:56.794Z,13.5
2018-05-10T21:54:47.430Z,13.5
2018-05-10T21:55:37.175Z,13.5
2018-05-10T21:56:27.525Z,13.5
2018-05-10T21:57:17.035Z,13.6
2018-05-10T21:58:07.651Z,13.5
2018-05-10T21:58:57.451Z,13.6
2018-05-10T21:59:47.793Z,13.6
2018-05-10T22:00:37.853Z,13.5
2018-05-10T22:01:27.913Z,13.6
2018-05-10T22:02:17.962Z,13.6
2018-05-10T22:03:08.018Z,13.6
2018-05-10T22:03:58.120Z,13.6
2018-05-10T22:04:48.183Z,13.5
2018-05-10T22:05:38.215Z,13.5
2018-05-10T22:06:28.286Z,13.6
2018-05-10T22:07:18.077Z,13.6
2018-05-10T22:08:08.125Z,13.6
2018-05-10T22:08:58.512Z,13.6
2018-05-10T22:09:48.608Z,13.6
2018-05-10T22:10:38.602Z,13.5
2018-05-10T22:11:28.663Z,13.5
2018-05-10T22:12:18.817Z,13.6
2018-05-10T22:13:08.789Z,13.5
2018-05-10T22:13:58.857Z,13.6
2018-05-10T22:14:48.654Z,13.6
2018-05-10T22:15:39.017Z,13.6
2018-05-10T22:16:28.797Z,13.6
2018-05-10T22:17:19.135Z,13.6
2018-05-10T22:18:08.905Z,13.6
2018-05-10T22:18:59.254Z,13.6
2018-05-10T22:19:49.036Z,13.6
2018-05-10T22:20:39.463Z,13.6
2018-05-10T22:21:29.433Z,13.6
2018-05-10T22:22:19.478Z,13.6
2018-05-10T22:23:09.552Z,13.6
2018-05-10T22:23:59.623Z,13.6
2018-05-10T22:24:49.678Z,13.6
2018-05-10T22:25:39.733Z,13.6
2018-05-10T22:26:29.813Z,13.6
2018-05-10T22:27:19.301Z,13.6
2018-05-10T22:28:09.920Z,13.6
2018-05-10T22:28:59.705Z,13.6
2018-05-10T22:29:50.057Z,13.6
2018-05-10T22:30:40.129Z,13.6
2018-05-10T22:31:30.177Z,13.6
2018-05-10T22:32:20.257Z,13.6
2018-05-10T22:33:10.315Z,13.6
2018-05-10T22:34:00.088Z,13.6
2018-05-10T22:34:50.432Z,13.6
2018-05-10T22:35:40.499Z,13.6
2018-05-10T22:36:29.991Z,13.6
2018-05-10T22:37:20.618Z,13.6
2018-05-10T22:38:10.713Z,13.6
2018-05-10T22:39:00.481Z,13.6
2018-05-10T22:39:50.835Z,13.6
2018-05-10T22:40:40.614Z,13.6
2018-05-10T22:41:30.957Z,13.6
2018-05-10T22:42:21.004Z,13.7
2018-05-10T22:43:10.795Z,13.7
2018-05-10T22:44:00.862Z,13.6
2018-05-10T22:44:51.203Z,13.6
2018-05-10T22:45:41.257Z,13.6
2018-05-10T22:46:31.335Z,13.6
2018-05-10T22:47:21.102Z,13.6
2018-05-10T22:48:11.469Z,13.6
2018-05-10T22:49:01.535Z,13.5
2018-05-10T22:49:51.578Z,13.5
2018-05-10T22:50:41.667Z,13.5
2018-05-10T22:51:31.702Z,13.5
2018-05-10T22:52:21.512Z,13.4
2018-05-10T22:53:11.834Z,13.4
2018-05-10T22:54:01.621Z,13.4
2018-05-10T22:54:51.956Z,13.4
2018-05-10T22:55:42.056Z,13.4
2018-05-10T22:56:31.810Z,13.4
2018-05-10T22:57:22.174Z,13.4
2018-05-10T22:58:12.230Z,13.4
2018-05-10T22:59:02.283Z,13.4
2018-05-10T22:59:52.748Z,13.4
2018-05-10T23:00:42.411Z,13.4
2018-05-10T23:01:32.295Z,13.4
2018-05-10T23:02:22.546Z,13.4
2018-05-10T23:03:12.586Z,13.4
2018-05-10T23:04:02.663Z,13.4
2018-05-10T23:04:52.730Z,13.4
2018-05-10T23:05:42.772Z,13.4
2018-05-10T23:06:32.850Z,13.4
2018-05-10T23:07:22.905Z,13.4
2018-05-10T23:08:12.971Z,13.4
2018-05-10T23:09:03.033Z,13.4
2018-05-10T23:09:53.105Z,13.4
2018-05-10T23:10:42.885Z,13.4
2018-05-10T23:11:32.959Z,13.4
2018-05-10T23:12:23.298Z,13.4
2018-05-10T23:13:13.078Z,13.4
2018-05-10T23:14:03.420Z,13.4
2018-05-10T23:14:53.201Z,13.4
2018-05-10T23:15:43.257Z,13.4
2018-05-10T23:16:33.600Z,13.4
2018-05-10T23:17:23.667Z,13.4
2018-05-10T23:18:13.722Z,13.4
2018-05-10T23:19:03.516Z,13.4
2018-05-10T23:19:53.849Z,13.4
2018-05-10T23:20:43.909Z,13.4
2018-05-10T23:21:33.699Z,13.4
2018-05-10T23:22:23.776Z,13.4
2018-05-10T23:23:14.117Z,13.4
2018-05-10T23:24:04.182Z,13.4
2018-05-10T23:24:53.949Z,13.4
2018-05-10T23:25:44.398Z,13.4
2018-05-10T23:26:34.361Z,13.4
2018-05-10T23:27:24.432Z,13.4
2018-05-10T23:28:14.517Z,13.4
2018-05-10T23:29:04.295Z,13.4
2018-05-10T23:29:54.039Z,13.4
2018-05-10T23:30:44.677Z,13.4
2018-05-10T23:31:34.476Z,13.4
2018-05-10T23:32:24.802Z,13.4
2018-05-10T23:33:14.878Z,13.4
2018-05-10T23:34:04.930Z,13.4
2018-05-10T23:34:54.705Z,13.4
2018-05-10T23:35:45.066Z,13.4
2018-05-10T23:36:35.117Z,13.4
2018-05-10T23:37:24.615Z,13.4
2018-05-10T23:38:14.968Z,13.4
2018-05-10T23:39:05.310Z,13.4
2018-05-10T23:39:55.378Z,13.4
2018-05-10T23:40:45.431Z,13.4
2018-05-10T23:41:35.509Z,13.4
2018-05-10T23:42:25.589Z,13.4
2018-05-10T23:43:15.347Z,13.4
2018-05-10T23:44:05.700Z,13.4
2018-05-10T23:44:55.747Z,13.4
2018-05-10T23:45:45.822Z,13.4
2018-05-10T23:46:35.887Z,13.4
2018-05-10T23:47:25.664Z,13.4
2018-05-10T23:48:16.017Z,13.4
2018-05-10T23:49:06.073Z,13.4
2018-05-10T23:49:56.131Z,13.4
2018-05-10T23:50:46.201Z,13.4
2018-05-10T23:51:36.253Z,13.4
2018-05-10T23:52:26.316Z,13.4
2018-05-10T23:53:16.378Z,13.4
2018-05-10T23:54:06.180Z,13.4
2018-05-10T23:54:56.524Z,13.5
2018-05-10T23:55:46.574Z,13.4
2018-05-10T23:56:36.636Z,13.4
2018-05-10T23:57:26.705Z,13.4
2018-05-10T23:58:16.212Z,13.4
2018-05-10T23:59:06.824Z,13.4
2018-05-10T23:59:56.605Z,13.4
